Terminal Aerodrome Forecast
Issued by NWS Bismarck, ND

Home | Current Version | Previous Version | Text Only | Print | Product List | Glossary On
Versions: 1 2 3 4 5 6 7 8 9 10 11 12 13
000
FTUS43 KBIS 191127
TAFBIS
TAF
KBIS 191127Z 1912/2012 11006KT P6SM BKN120 BKN150
     FM191700 13008KT P6SM SCT120 SCT200
     FM191900 14008KT P6SM FEW300
     FM200300 14004KT P6SM BKN200
     FM200600 VRB02KT P6SM -RA SCT080 OVC100=

USA.gov is the U.S. government's official web portal to all federal, state and local government web resources and services.